Time;durP1;ratioP1;P1;durP2;ratioP2;P2;SDS_P1;SDS_P2;PMS_P1;PMS_P2;Temp;Humidity;BMP_temperature;BMP_pressure;BME280_temperature;BME280_humidity;BME280_pressure;Samples;Min_cycle;Max_cycle;Signal;HPM_P1;HPM_P2
2022/01/29 00:01:58;;;;;;;18.13;10.10;;;7.30;99.90;;;;;;5060740;28;20068;-67
2022/01/29 00:04:24;;;;;;;21.08;10.32;;;7.30;99.90;;;;;;5060551;28;20043;-68
2022/01/29 00:06:50;;;;;;;21.95;10.82;;;7.30;99.90;;;;;;5076264;28;20093;-67
2022/01/29 00:09:16;;;;;;;20.33;11.20;;;7.30;99.90;;;;;;5076403;28;20048;-68
2022/01/29 00:11:43;;;;;;;29.08;12.80;;;7.30;99.90;;;;;;5077610;28;20036;-67
2022/01/29 00:14:09;;;;;;;28.13;11.48;;;7.30;99.90;;;;;;5077145;28;20089;-67
2022/01/29 00:16:36;;;;;;;26.08;13.80;;;7.30;99.90;;;;;;5060629;28;20118;-68
2022/01/29 00:19:03;;;;;;;25.90;11.60;;;7.20;99.90;;;;;;5077500;28;20032;-68
2022/01/29 00:21:29;;;;;;;27.92;13.70;;;7.20;99.90;;;;;;5077065;28;20032;-68
2022/01/29 00:23:55;;;;;;;28.48;12.80;;;7.20;99.90;;;;;;5060279;28;20087;-68
2022/01/29 00:26:22;;;;;;;25.38;12.75;;;7.20;99.90;;;;;;5076858;28;20125;-67
2022/01/29 00:28:51;;;;;;;28.90;14.52;;;7.20;99.90;;;;;;5060273;28;20040;-68
2022/01/29 00:31:17;;;;;;;34.53;15.82;;;7.20;99.90;;;;;;5077051;28;20051;-67
2022/01/29 00:33:42;;;;;;;22.88;11.95;;;7.10;99.90;;;;;;5076794;28;20472;-67
2022/01/29 00:36:08;;;;;;;26.48;13.48;;;7.20;99.90;;;;;;5060093;28;20044;-67
2022/01/29 00:38:35;;;;;;;36.63;15.13;;;7.10;99.90;;;;;;5074389;28;20101;-67
2022/01/29 00:41:04;;;;;;;31.27;15.18;;;7.20;99.90;;;;;;5059980;28;20036;-67
2022/01/29 00:43:30;;;;;;;28.10;13.35;;;7.20;99.90;;;;;;5076750;28;20051;-68
2022/01/29 00:45:56;;;;;;;33.42;14.85;;;7.20;99.90;;;;;;5076544;28;20048;-68
2022/01/29 00:48:22;;;;;;;36.75;14.80;;;7.10;99.90;;;;;;5076806;28;20040;-67
2022/01/29 00:50:48;;;;;;;29.70;13.95;;;7.20;99.90;;;;;;5076085;28;20111;-68
2022/01/29 00:53:13;;;;;;;28.30;14.98;;;7.20;99.90;;;;;;5075185;28;20032;-68
2022/01/29 00:55:42;;;;;;;39.75;17.05;;;7.20;99.90;;;;;;5076123;28;20400;-68
2022/01/29 00:58:08;;;;;;;30.83;15.60;;;7.20;99.90;;;;;;5076316;28;20501;-67
2022/01/29 01:00:34;;;;;;;29.00;15.35;;;7.20;99.90;;;;;;5059525;28;20032;-68
2022/01/29 01:03:00;;;;;;;41.03;16.63;;;7.20;99.90;;;;;;5075802;28;20123;-67
2022/01/29 01:05:26;;;;;;;37.15;16.60;;;7.20;99.90;;;;;;5076378;28;20123;-67
2022/01/29 01:07:52;;;;;;;36.35;16.05;;;7.20;99.90;;;;;;5074068;28;20394;-68
2022/01/29 01:10:18;;;;;;;39.78;17.08;;;7.20;99.90;;;;;;5076304;28;20062;-68
2022/01/29 01:12:44;;;;;;;43.88;16.63;;;7.20;99.90;;;;;;5059206;28;20048;-68
2022/01/29 01:15:10;;;;;;;34.97;15.95;;;7.20;99.90;;;;;;5059224;28;20043;-68
2022/01/29 01:17:36;;;;;;;35.92;18.00;;;7.20;99.90;;;;;;5059221;28;20040;-67
2022/01/29 01:20:04;;;;;;;36.70;17.60;;;7.20;99.90;;;;;;5075619;28;20043;-67
2022/01/29 01:22:30;;;;;;;43.17;18.23;;;7.20;99.90;;;;;;5075622;28;20534;-67
2022/01/29 01:24:56;;;;;;;40.00;18.92;;;7.30;99.90;;;;;;5075637;28;20048;-67
2022/01/29 01:27:22;;;;;;;33.67;15.65;;;7.30;99.90;;;;;;5059144;28;20075;-68
2022/01/29 01:29:47;;;;;;;36.58;17.85;;;7.30;99.90;;;;;;5075555;28;20067;-68
2022/01/29 01:32:13;;;;;;;40.25;16.95;;;7.30;99.90;;;;;;5058909;28;20071;-68
2022/01/29 01:34:49;;;;;;;35.75;16.92;;;7.30;99.90;;;;;;5075495;28;20055;-67
2022/01/29 01:37:28;;;;;;;37.17;18.13;;;7.30;99.90;;;;;;5073515;28;20032;-67
2022/01/29 01:39:54;;;;;;;36.70;17.15;;;7.40;99.90;;;;;;5075740;28;20124;-67
2022/01/29 01:42:20;;;;;;;40.50;16.85;;;7.40;99.90;;;;;;5072746;28;20074;-67
2022/01/29 01:44:48;;;;;;;35.78;16.30;;;7.40;99.90;;;;;;5075566;28;20048;-67
2022/01/29 01:47:16;;;;;;;35.38;17.60;;;7.50;99.90;;;;;;5075327;28;20101;-67
2022/01/29 01:49:42;;;;;;;30.95;16.58;;;7.40;99.90;;;;;;5075576;28;20055;-68
2022/01/29 01:52:11;;;;;;;39.92;16.52;;;7.50;99.90;;;;;;5075154;28;20085;-67
2022/01/29 01:54:42;;;;;;;34.05;16.80;;;7.40;99.90;;;;;;5058522;28;20047;-68
2022/01/29 01:57:08;;;;;;;37.83;18.30;;;7.40;99.90;;;;;;5058452;28;20495;-68
2022/01/29 01:59:34;;;;;;;37.70;17.65;;;7.50;99.90;;;;;;5075192;28;20148;-68
2022/01/29 02:02:00;;;;;;;38.03;17.08;;;7.50;99.90;;;;;;5058655;28;20028;-67
2022/01/29 02:04:28;;;;;;;38.55;17.05;;;7.60;99.90;;;;;;5058422;28;20071;-68
2022/01/29 02:06:54;;;;;;;36.78;17.05;;;7.60;99.90;;;;;;5056955;28;20543;-67
2022/01/29 02:09:22;;;;;;;34.35;15.68;;;7.60;99.90;;;;;;5074503;28;20150;-67
2022/01/29 02:11:50;;;;;;;41.85;15.88;;;7.60;99.90;;;;;;5058269;28;20065;-68
2022/01/29 02:14:16;;;;;;;34.08;13.80;;;7.60;99.90;;;;;;5057683;28;20127;-67
2022/01/29 02:16:42;;;;;;;35.05;15.38;;;7.60;99.90;;;;;;5075109;28;20407;-67
2022/01/29 02:19:08;;;;;;;32.78;15.43;;;7.60;99.90;;;;;;5075156;28;20105;-68
2022/01/29 02:21:36;;;;;;;34.78;16.15;;;7.60;99.90;;;;;;5074918;28;20612;-67
2022/01/29 02:24:02;;;;;;;41.92;16.10;;;7.60;99.90;;;;;;5057929;28;20489;-69
2022/01/29 02:26:28;;;;;;;35.42;15.18;;;7.60;99.90;;;;;;5074986;28;20052;-67
2022/01/29 02:28:55;;;;;;;35.58;15.48;;;7.60;99.90;;;;;;5075107;28;20113;-67
2022/01/29 02:31:21;;;;;;;36.67;14.15;;;7.70;99.90;;;;;;5058242;28;20419;-67
2022/01/29 02:33:47;;;;;;;39.58;15.43;;;7.60;99.90;;;;;;5058102;28;20036;-68
2022/01/29 02:36:13;;;;;;;33.78;16.45;;;7.70;99.90;;;;;;5058040;28;20123;-68
2022/01/29 02:38:39;;;;;;;31.58;16.35;;;7.70;99.90;;;;;;5055638;28;20130;-67
2022/01/29 02:41:06;;;;;;;35.58;13.48;;;7.70;99.90;;;;;;5057771;28;20046;-67
2022/01/29 02:43:47;;;;;;;34.78;15.48;;;7.70;99.90;;;;;;5074791;28;20040;-67
2022/01/29 02:48:46;;;;;;;35.95;15.40;;;7.70;99.90;;;;;;5074587;28;20527;-67
2022/01/29 02:51:12;;;;;;;35.03;15.35;;;7.70;99.90;;;;;;5074522;28;20594;-67
2022/01/29 02:53:38;;;;;;;33.20;14.63;;;7.70;99.90;;;;;;5074444;28;20055;-67
2022/01/29 02:56:04;;;;;;;28.55;14.65;;;7.70;99.90;;;;;;5074556;28;20044;-68
2022/01/29 02:58:30;;;;;;;33.83;15.75;;;7.80;99.90;;;;;;5074782;28;20130;-68
2022/01/29 03:00:56;;;;;;;36.88;17.00;;;7.80;99.90;;;;;;5074846;28;20032;-70
2022/01/29 03:03:22;;;;;;;32.17;15.10;;;7.80;99.90;;;;;;5057999;28;20491;-70
2022/01/29 03:05:48;;;;;;;36.25;15.98;;;7.80;99.90;;;;;;5074887;28;20059;-71
2022/01/29 03:08:14;;;;;;;30.17;16.67;;;7.80;99.90;;;;;;5056305;28;20039;-71
2022/01/29 03:10:40;;;;;;;35.17;17.20;;;7.80;99.90;;;;;;5074712;28;20527;-70
2022/01/29 03:13:05;;;;;;;33.38;17.05;;;7.80;99.90;;;;;;5074647;28;20169;-70
2022/01/29 03:15:31;;;;;;;31.02;16.27;;;7.80;99.90;;;;;;5074818;28;20043;-70
2022/01/29 03:17:57;;;;;;;34.58;15.88;;;7.80;99.90;;;;;;5058038;28;20462;-71
2022/01/29 03:20:23;;;;;;;29.83;14.50;;;7.80;99.90;;;;;;5057780;28;20404;-71
2022/01/29 03:22:49;;;;;;;33.88;17.45;;;7.80;99.90;;;;;;5074485;28;20064;-71
2022/01/29 03:25:16;;;;;;;37.47;17.92;;;7.90;99.90;;;;;;5076070;28;20092;-71
2022/01/29 03:27:42;;;;;;;28.58;16.20;;;7.90;99.90;;;;;;5061646;28;20047;-73
2022/01/29 03:30:09;;;;;;;40.03;18.50;;;7.90;99.90;;;;;;5061821;28;20040;-70
2022/01/29 03:32:36;;;;;;;30.98;16.25;;;7.90;99.90;;;;;;5078344;28;20066;-70
2022/01/29 03:35:02;;;;;;;28.77;16.40;;;7.90;99.90;;;;;;5078133;28;20068;-70
2022/01/29 03:37:28;;;;;;;35.22;16.35;;;7.90;99.90;;;;;;5059259;28;20043;-70
2022/01/29 03:39:59;;;;;;;35.17;16.67;;;7.90;99.90;;;;;;5078054;28;20032;-70
2022/01/29 03:42:27;;;;;;;41.60;17.55;;;7.90;99.90;;;;;;5078099;28;20416;-70
2022/01/29 03:44:54;;;;;;;30.65;16.63;;;8.00;99.90;;;;;;5077921;28;20047;-71
2022/01/29 03:47:20;;;;;;;30.85;14.63;;;8.00;99.90;;;;;;5061347;28;20047;-70
2022/01/29 03:49:46;;;;;;;32.55;16.35;;;8.00;99.90;;;;;;5061393;28;20388;-70
2022/01/29 03:52:12;;;;;;;30.90;15.88;;;8.00;99.90;;;;;;5061310;28;20400;-70
2022/01/29 03:54:38;;;;;;;33.25;16.23;;;8.00;99.90;;;;;;5077646;28;20396;-71
2022/01/29 03:57:04;;;;;;;33.75;15.38;;;8.10;99.90;;;;;;5077620;28;20094;-71
2022/01/29 03:59:30;;;;;;;35.25;17.02;;;8.10;99.90;;;;;;5077956;28;20044;-70
2022/01/29 04:01:56;;;;;;;25.45;15.10;;;8.10;99.90;;;;;;5061217;28;20050;-71
2022/01/29 04:04:21;;;;;;;34.90;16.80;;;8.20;99.90;;;;;;5077899;28;20036;-71
2022/01/29 04:06:49;;;;;;;25.40;14.30;;;8.20;99.90;;;;;;5077723;28;20583;-71
2022/01/29 04:09:15;;;;;;;31.33;15.38;;;8.20;99.90;;;;;;5076087;28;20047;-71
2022/01/29 04:11:41;;;;;;;36.50;16.85;;;8.20;99.90;;;;;;5061026;28;20036;-71
2022/01/29 04:14:17;;;;;;;31.58;14.70;;;8.20;99.90;;;;;;5060784;28;20354;-70
2022/01/29 04:16:44;;;;;;;29.33;16.35;;;8.20;99.90;;;;;;5077309;28;20085;-71
2022/01/29 04:19:11;;;;;;;30.70;15.48;;;8.20;99.90;;;;;;5077620;28;20094;-71
2022/01/29 04:21:37;;;;;;;38.33;17.00;;;8.20;99.90;;;;;;5077494;28;20075;-71
2022/01/29 04:24:03;;;;;;;30.92;15.15;;;8.20;99.90;;;;;;5076947;28;20533;-71
2022/01/29 04:26:34;;;;;;;29.88;16.35;;;8.20;99.90;;;;;;5060537;28;20127;-70
2022/01/29 04:29:06;;;;;;;31.33;15.30;;;8.20;99.90;;;;;;5077375;28;20180;-71
2022/01/29 04:31:40;;;;;;;26.10;14.05;;;8.20;99.90;;;;;;5060656;28;20035;-71
2022/01/29 04:34:06;;;;;;;32.13;17.23;;;8.20;99.90;;;;;;5076930;28;20036;-70
2022/01/29 04:36:32;;;;;;;30.50;15.20;;;8.20;99.90;;;;;;5059795;28;20581;-70
2022/01/29 04:38:57;;;;;;;29.95;15.27;;;8.20;99.90;;;;;;5039589;28;20116;-71
2022/01/29 04:41:23;;;;;;;33.00;14.88;;;8.20;99.90;;;;;;5040214;28;20123;-72
2022/01/29 04:43:49;;;;;;;30.30;14.90;;;8.20;99.90;;;;;;5040370;28;20044;-71
2022/01/29 04:46:15;;;;;;;29.55;17.30;;;8.20;99.90;;;;;;5057054;28;20087;-71
2022/01/29 04:48:41;;;;;;;24.52;14.02;;;8.20;99.90;;;;;;5056660;28;20123;-71
2022/01/29 04:51:06;;;;;;;23.67;14.23;;;8.20;99.90;;;;;;5056474;28;20135;-70
2022/01/29 04:53:32;;;;;;;26.77;14.25;;;8.20;99.90;;;;;;5039805;28;20040;-71
2022/01/29 04:55:58;;;;;;;35.50;14.57;;;8.20;99.90;;;;;;5057013;28;20075;-71
2022/01/29 04:58:24;;;;;;;26.67;14.38;;;8.20;99.90;;;;;;5056470;28;20432;-71
2022/01/29 05:00:50;;;;;;;26.52;14.98;;;8.20;99.90;;;;;;5056740;28;20110;-72
2022/01/29 05:03:16;;;;;;;29.25;14.82;;;8.20;99.90;;;;;;5056606;28;20443;-71
2022/01/29 05:05:43;;;;;;;26.77;14.07;;;8.20;99.90;;;;;;5056665;28;20052;-70
2022/01/29 05:08:13;;;;;;;26.77;13.52;;;8.20;99.90;;;;;;5038015;28;20097;-71
2022/01/29 05:10:39;;;;;;;25.80;14.73;;;8.20;99.90;;;;;;5056699;28;20120;-70
2022/01/29 05:13:09;;;;;;;27.98;13.73;;;8.20;99.90;;;;;;5056371;28;20484;-71
2022/01/29 05:15:53;;;;;;;25.55;14.52;;;8.20;99.90;;;;;;5056227;28;20047;-72
2022/01/29 05:29:39;;;;;;;24.23;12.45;;;8.20;99.90;;;;;;4956474;28;20049;-71
2022/01/29 05:32:08;;;;;;;28.27;13.60;;;8.20;99.90;;;;;;4956566;28;20047;-71
2022/01/29 05:34:35;;;;;;;24.55;12.40;;;8.20;99.90;;;;;;5015977;28;20056;-70
2022/01/29 05:37:02;;;;;;;22.23;12.43;;;8.20;99.90;;;;;;5074245;28;20046;-70
2022/01/29 05:39:28;;;;;;;22.38;12.57;;;8.20;99.90;;;;;;5075595;28;20040;-70
2022/01/29 05:41:54;;;;;;;29.33;12.15;;;8.20;99.90;;;;;;5059438;28;20071;-71
2022/01/29 05:44:21;;;;;;;26.27;13.30;;;8.20;99.90;;;;;;5075685;28;20071;-70
2022/01/29 05:46:47;;;;;;;28.48;13.23;;;8.20;99.90;;;;;;5075464;28;20407;-70
2022/01/29 05:49:12;;;;;;;28.58;13.07;;;8.20;99.90;;;;;;5074628;28;20036;-70
2022/01/29 05:51:38;;;;;;;24.17;13.55;;;8.30;99.90;;;;;;5058885;28;20089;-70
2022/01/29 05:54:04;;;;;;;21.23;10.63;;;8.30;99.90;;;;;;5075493;28;20052;-70
2022/01/29 05:56:30;;;;;;;25.85;12.75;;;8.30;99.90;;;;;;5058714;28;20040;-70
2022/01/29 05:58:57;;;;;;;18.23;10.73;;;8.30;99.90;;;;;;5075280;28;20547;-70
2022/01/29 06:01:23;;;;;;;23.13;11.90;;;8.40;99.90;;;;;;5075283;28;20119;-70
2022/01/29 06:03:49;;;;;;;19.98;12.32;;;8.40;99.90;;;;;;5075598;28;20441;-70
2022/01/29 06:06:15;;;;;;;25.20;11.88;;;8.40;99.90;;;;;;5075461;28;20040;-70
2022/01/29 06:08:41;;;;;;;19.92;12.05;;;8.40;99.90;;;;;;5056738;28;20043;-71
2022/01/29 06:11:07;;;;;;;25.17;10.50;;;8.50;99.90;;;;;;5058699;28;20047;-70
2022/01/29 06:13:33;;;;;;;17.67;10.95;;;8.50;99.90;;;;;;5075102;28;20048;-70
2022/01/29 06:16:01;;;;;;;21.88;11.38;;;8.50;99.90;;;;;;5075059;28;20032;-70
2022/01/29 06:18:27;;;;;;;22.00;11.40;;;8.50;99.90;;;;;;5075569;28;20499;-70
2022/01/29 06:20:56;;;;;;;23.20;12.38;;;8.50;99.90;;;;;;5058800;28;20035;-70
2022/01/29 06:23:28;;;;;;;20.27;11.93;;;8.60;99.90;;;;;;5074892;28;20134;-71
2022/01/29 06:25:59;;;;;;;19.95;10.80;;;8.60;99.90;;;;;;5075175;28;20048;-71
2022/01/29 06:28:25;;;;;;;13.68;9.35;;;8.60;99.90;;;;;;5075128;28;20043;-71
2022/01/29 06:30:51;;;;;;;20.10;10.77;;;8.60;99.90;;;;;;5075141;28;20047;-70
2022/01/29 06:33:17;;;;;;;20.30;11.55;;;8.70;99.90;;;;;;5058105;28;20044;-70
2022/01/29 06:35:44;;;;;;;18.55;10.43;;;8.70;99.90;;;;;;5058401;28;20046;-71
2022/01/29 06:38:12;;;;;;;20.20;10.23;;;8.70;99.90;;;;;;5044584;28;20041;-71
2022/01/29 06:40:39;;;;;;;20.85;10.70;;;8.70;99.90;;;;;;5054873;28;20049;-70
2022/01/29 06:43:06;;;;;;;17.35;9.80;;;8.70;99.90;;;;;;5054812;28;20049;-72
2022/01/29 06:45:33;;;;;;;14.93;9.15;;;8.70;99.90;;;;;;5054842;28;20044;-71
2022/01/29 06:48:00;;;;;;;19.98;9.23;;;8.70;99.90;;;;;;5054943;28;20094;-70
2022/01/29 06:50:26;;;;;;;21.23;10.10;;;8.70;99.90;;;;;;5038027;28;20059;-70
2022/01/29 06:52:52;;;;;;;17.65;9.65;;;8.70;99.90;;;;;;5038322;28;20044;-71
2022/01/29 06:55:18;;;;;;;20.92;9.88;;;8.70;99.90;;;;;;5054756;28;20477;-70
2022/01/29 06:57:44;;;;;;;19.63;11.13;;;8.60;99.90;;;;;;5038411;28;20044;-70
2022/01/29 07:00:11;;;;;;;23.50;10.18;;;8.60;99.90;;;;;;5039449;28;20047;-70
2022/01/29 07:02:37;;;;;;;25.52;10.20;;;8.60;99.90;;;;;;5058828;28;20101;-71
2022/01/29 07:05:05;;;;;;;18.60;10.75;;;8.60;99.90;;;;;;5042093;28;20123;-70
2022/01/29 07:07:31;;;;;;;22.52;10.50;;;8.60;99.90;;;;;;5056808;28;20043;-70
2022/01/29 07:09:57;;;;;;;24.45;9.35;;;8.60;99.90;;;;;;5058917;28;20036;-71
2022/01/29 07:12:23;;;;;;;23.65;9.98;;;8.60;99.90;;;;;;5058585;28;20040;-70
2022/01/29 07:14:49;;;;;;;25.25;11.07;;;8.50;99.90;;;;;;5058365;28;20047;-70
2022/01/29 07:17:18;;;;;;;20.80;9.55;;;8.60;99.90;;;;;;5058628;28;20046;-70
2022/01/29 07:19:45;;;;;;;18.33;9.48;;;8.50;99.90;;;;;;5041709;28;20488;-70
2022/01/29 07:22:11;;;;;;;18.50;9.73;;;8.50;99.90;;;;;;5044866;28;20075;-70
2022/01/29 07:24:38;;;;;;;19.48;10.05;;;8.60;99.90;;;;;;5077526;28;20434;-70
2022/01/29 07:27:05;;;;;;;17.00;9.95;;;8.60;99.90;;;;;;5041218;28;20049;-70
2022/01/29 07:29:31;;;;;;;21.73;9.95;;;8.60;99.90;;;;;;5041556;28;20032;-70
2022/01/29 07:31:58;;;;;;;18.52;9.13;;;8.60;99.90;;;;;;5048662;28;20044;-71
2022/01/29 07:34:25;;;;;;;23.48;9.80;;;8.60;99.90;;;;;;5074535;28;20098;-70
2022/01/29 07:36:52;;;;;;;21.45;10.18;;;8.60;99.90;;;;;;5074728;28;20123;-70
2022/01/29 07:39:19;;;;;;;17.70;9.02;;;8.60;99.90;;;;;;5072765;28;20448;-71
2022/01/29 07:41:45;;;;;;;17.77;8.52;;;8.60;99.90;;;;;;5074551;28;20043;-70
2022/01/29 07:44:12;;;;;;;21.25;9.27;;;8.60;99.90;;;;;;5050349;28;20098;-70
2022/01/29 07:46:38;;;;;;;18.23;8.95;;;8.60;99.90;;;;;;5057842;28;20476;-70
2022/01/29 07:49:04;;;;;;;23.40;9.65;;;8.60;99.90;;;;;;5041512;28;20135;-70
2022/01/29 07:51:29;;;;;;;15.32;8.75;;;8.60;99.90;;;;;;5040949;28;20147;-70
2022/01/29 07:53:55;;;;;;;21.00;8.38;;;8.70;99.90;;;;;;5040981;28;20110;-70
2022/01/29 07:56:21;;;;;;;17.55;7.53;;;8.70;99.90;;;;;;5041071;28;20036;-70
2022/01/29 07:58:48;;;;;;;15.75;7.57;;;8.70;99.90;;;;;;5057565;28;20481;-70
2022/01/29 08:01:14;;;;;;;16.73;7.85;;;8.70;99.90;;;;;;5057791;28;20040;-70
2022/01/29 08:03:44;;;;;;;13.10;6.38;;;8.70;99.90;;;;;;5057940;28;20060;-70
2022/01/29 08:06:10;;;;;;;16.85;7.05;;;8.80;99.90;;;;;;5057584;28;20067;-70
2022/01/29 08:08:36;;;;;;;17.77;7.63;;;8.80;99.90;;;;;;5055577;28;20473;-70
2022/01/29 08:11:01;;;;;;;17.52;7.25;;;8.80;99.90;;;;;;5057206;28;20111;-70
2022/01/29 08:13:27;;;;;;;14.25;7.93;;;8.80;99.90;;;;;;5039908;28;20044;-72
2022/01/29 08:15:53;;;;;;;14.27;6.35;;;8.80;99.90;;;;;;5057170;28;20044;-70
2022/01/29 08:18:19;;;;;;;15.48;6.75;;;8.80;99.90;;;;;;5057495;28;20036;-71
2022/01/29 08:20:44;;;;;;;17.55;7.25;;;8.80;99.90;;;;;;5057290;28;20517;-71
2022/01/29 08:23:10;;;;;;;18.40;6.93;;;8.90;99.90;;;;;;5065028;28;20562;-70
2022/01/29 08:25:37;;;;;;;14.50;6.40;;;8.90;99.90;;;;;;5073725;28;20547;-70
2022/01/29 08:28:04;;;;;;;13.40;6.75;;;8.90;99.90;;;;;;5057459;28;20040;-70
2022/01/29 08:30:30;;;;;;;12.35;6.00;;;9.00;99.90;;;;;;5057039;28;20052;-70
2022/01/29 08:32:57;;;;;;;15.38;6.40;;;9.00;99.90;;;;;;5073646;28;20044;-70
2022/01/29 08:35:23;;;;;;;13.88;6.72;;;9.00;99.90;;;;;;5073382;28;20033;-69
2022/01/29 08:37:49;;;;;;;18.38;7.20;;;9.10;99.90;;;;;;5071356;28;20111;-70
2022/01/29 08:40:15;;;;;;;15.70;6.18;;;9.00;99.90;;;;;;5073360;28;20128;-70
2022/01/29 08:42:41;;;;;;;12.38;6.07;;;9.10;99.90;;;;;;5057164;28;20080;-71
2022/01/29 08:45:08;;;;;;;14.68;5.25;;;9.10;99.90;;;;;;5056679;28;20083;-70
2022/01/29 08:47:34;;;;;;;12.20;5.22;;;9.10;99.90;;;;;;5073352;28;20041;-70
2022/01/29 08:50:03;;;;;;;11.48;6.20;;;9.20;99.90;;;;;;5073333;28;20094;-70
2022/01/29 08:52:29;;;;;;;14.88;5.40;;;9.20;99.90;;;;;;5073065;28;20059;-70
2022/01/29 08:54:55;;;;;;;10.48;4.40;;;9.20;99.90;;;;;;5073098;28;20048;-70
2022/01/29 08:57:22;;;;;;;11.35;4.93;;;9.20;99.90;;;;;;5056898;28;20036;-69
2022/01/29 08:59:48;;;;;;;16.10;4.75;;;9.30;99.90;;;;;;5073154;28;20032;-70
2022/01/29 09:02:13;;;;;;;12.23;4.68;;;9.30;99.90;;;;;;5073126;28;20037;-69
2022/01/29 09:04:39;;;;;;;12.63;6.00;;;9.30;99.90;;;;;;5073003;28;20044;-69
2022/01/29 09:07:05;;;;;;;8.07;3.92;;;9.30;99.90;;;;;;5071454;28;20059;-69
2022/01/29 09:09:31;;;;;;;13.02;4.75;;;9.40;99.90;;;;;;5072962;28;20431;-70
2022/01/29 09:11:58;;;;;;;10.45;4.55;;;9.40;99.90;;;;;;5056130;28;20044;-69
2022/01/29 09:14:23;;;;;;;11.05;4.05;;;9.40;99.90;;;;;;5056153;28;20123;-69
2022/01/29 09:16:49;;;;;;;12.65;4.45;;;9.40;99.90;;;;;;5072685;28;20626;-68
2022/01/29 09:19:15;;;;;;;11.32;4.38;;;9.40;99.90;;;;;;5056008;28;20119;-70
2022/01/29 09:21:41;;;;;;;12.82;4.72;;;9.50;99.90;;;;;;5056201;28;20075;-70
2022/01/29 09:24:07;;;;;;;8.23;4.18;;;9.50;99.90;;;;;;5059177;28;20056;-70
2022/01/29 09:26:32;;;;;;;10.15;4.75;;;9.50;99.90;;;;;;5076272;28;20476;-70
2022/01/29 09:28:58;;;;;;;12.57;3.72;;;9.50;99.90;;;;;;5075979;28;20050;-70
2022/01/29 09:31:24;;;;;;;8.30;3.65;;;9.50;99.90;;;;;;5076169;28;20089;-70
2022/01/29 09:33:50;;;;;;;8.95;3.63;;;9.60;99.90;;;;;;5059259;28;20051;-70
2022/01/29 09:36:16;;;;;;;13.25;4.35;;;9.60;99.90;;;;;;5059170;28;20044;-70
2022/01/29 09:38:41;;;;;;;12.48;3.60;;;9.60;99.90;;;;;;5057948;28;20043;-70
2022/01/29 09:41:08;;;;;;;7.00;3.33;;;9.60;99.90;;;;;;5039143;28;20098;-70
2022/01/29 09:43:35;;;;;;;10.52;3.47;;;9.60;99.90;;;;;;5056196;28;20036;-70
2022/01/29 09:46:01;;;;;;;18.25;4.00;;;9.60;99.90;;;;;;5055940;28;20033;-70
2022/01/29 09:48:28;;;;;;;11.65;3.60;;;9.60;99.90;;;;;;5055797;28;20044;-70
2022/01/29 09:50:58;;;;;;;9.23;3.45;;;9.60;99.90;;;;;;5038987;28;20078;-69
2022/01/29 09:53:24;;;;;;;8.57;3.30;;;9.60;99.90;;;;;;5039046;28;20385;-70
2022/01/29 09:55:50;;;;;;;12.23;3.72;;;9.60;99.90;;;;;;5039069;28;20075;-70
2022/01/29 09:58:16;;;;;;;9.75;2.95;;;9.60;99.90;;;;;;5055362;28;20079;-70
2022/01/29 10:00:42;;;;;;;10.25;3.08;;;9.60;99.90;;;;;;5055270;28;20037;-70
2022/01/29 10:03:11;;;;;;;9.18;3.10;;;9.60;99.90;;;;;;5055261;28;20044;-71
2022/01/29 10:05:43;;;;;;;9.80;4.43;;;9.60;99.90;;;;;;5038840;28;20041;-69
2022/01/29 10:08:09;;;;;;;11.80;3.35;;;9.60;99.90;;;;;;5053154;28;20435;-69
2022/01/29 10:10:41;;;;;;;11.70;3.65;;;9.70;99.90;;;;;;5055016;28;20044;-70
2022/01/29 10:13:26;;;;;;;10.73;2.95;;;9.70;99.90;;;;;;5054914;28;20044;-69
2022/01/29 10:16:04;;;;;;;12.73;3.10;;;9.70;99.90;;;;;;5038414;28;20041;-70
2022/01/29 10:18:31;;;;;;;12.43;3.05;;;9.80;99.90;;;;;;5055342;28;20202;-69
2022/01/29 10:21:12;;;;;;;10.63;4.20;;;9.80;99.90;;;;;;5038660;28;20036;-70
2022/01/29 10:23:38;;;;;;;9.80;2.65;;;9.80;99.90;;;;;;5070009;28;20055;-70
2022/01/29 10:26:05;;;;;;;8.30;2.78;;;9.80;99.90;;;;;;5074859;28;20048;-70
2022/01/29 10:28:31;;;;;;;8.50;3.47;;;9.80;99.90;;;;;;5058173;28;20507;-68
2022/01/29 10:31:07;;;;;;;6.65;3.08;;;9.90;99.90;;;;;;5075083;28;20039;-68
2022/01/29 10:33:36;;;;;;;11.10;3.08;;;9.90;99.90;;;;;;5074958;28;20127;-68
2022/01/29 10:36:10;;;;;;;9.55;2.80;;;9.90;99.90;;;;;;5074251;28;20071;-68
2022/01/29 10:38:48;;;;;;;9.52;2.97;;;10.00;99.90;;;;;;5072524;28;20040;-68
2022/01/29 10:41:27;;;;;;;10.48;3.33;;;10.10;99.90;;;;;;5074971;28;20395;-69
2022/01/29 10:44:12;;;;;;;11.52;3.10;;;10.10;99.90;;;;;;5074936;28;20502;-69
2022/01/29 10:46:46;;;;;;;13.82;3.00;;;10.20;99.90;;;;;;5074668;28;20044;-71
2022/01/29 10:49:20;;;;;;;9.95;2.80;;;10.20;99.90;;;;;;5073673;28;20176;-69
2022/01/29 10:52:02;;;;;;;6.63;2.30;;;10.20;99.90;;;;;;5074906;28;20353;-69
2022/01/29 10:54:29;;;;;;;17.15;3.13;;;10.20;99.90;;;;;;5074702;28;20040;-69
2022/01/29 10:57:04;;;;;;;11.73;3.80;;;10.20;99.90;;;;;;5074447;28;20123;-69
2022/01/29 10:59:36;;;;;;;10.55;2.97;;;10.20;99.90;;;;;;5074497;28;20476;-69
2022/01/29 11:02:08;;;;;;;13.05;3.38;;;10.20;99.90;;;;;;5057815;28;20036;-69
2022/01/29 11:04:37;;;;;;;12.02;2.78;;;10.40;99.90;;;;;;5074768;28;20127;-69
2022/01/29 11:07:09;;;;;;;10.32;2.42;;;10.50;99.90;;;;;;5057061;28;20532;-68
2022/01/29 11:09:35;;;;;;;13.57;2.78;;;10.60;99.90;;;;;;5058144;28;20130;-70
2022/01/29 11:12:05;;;;;;;6.95;2.15;;;10.80;99.90;;;;;;5058126;28;20345;-69
2022/01/29 11:14:32;;;;;;;9.93;2.72;;;10.80;99.90;;;;;;5074519;28;20391;-69
2022/01/29 11:17:00;;;;;;;10.65;3.80;;;10.70;99.90;;;;;;5074836;28;20055;-68
2022/01/29 11:19:25;;;;;;;9.80;3.17;;;10.70;99.90;;;;;;5057804;28;20040;-71
2022/01/29 11:21:54;;;;;;;9.77;2.20;;;10.70;99.90;;;;;;5057588;28;20043;-69
2022/01/29 11:24:23;;;;;;;7.45;2.47;;;10.70;99.90;;;;;;5074250;28;20126;-68
2022/01/29 11:26:50;;;;;;;8.02;2.20;;;10.70;99.90;;;;;;5074452;28;20044;-69
2022/01/29 11:29:35;;;;;;;6.10;2.35;;;10.60;99.90;;;;;;5074375;28;20047;-69
2022/01/29 11:32:23;;;;;;;9.95;2.75;;;10.60;99.90;;;;;;5074673;28;20105;-68
2022/01/29 11:35:07;;;;;;;9.63;2.70;;;10.50;99.90;;;;;;5088989;28;20055;-68
2022/01/29 11:37:42;;;;;;;9.25;2.00;;;10.50;99.90;;;;;;5058694;28;20449;-69
2022/01/29 11:40:23;;;;;;;8.70;2.15;;;10.60;99.90;;;;;;5060039;28;20079;-69
2022/01/29 11:43:13;;;;;;;5.18;1.98;;;10.70;99.90;;;;;;5074231;28;20396;-70
2022/01/29 11:45:51;;;;;;;7.88;1.92;;;10.80;99.90;;;;;;5074320;28;20050;-69
2022/01/29 11:48:26;;;;;;;7.57;1.90;;;10.80;99.90;;;;;;5077657;28;20039;-69
2022/01/29 11:50:54;;;;;;;3.72;1.35;;;10.90;99.90;;;;;;5094895;28;20067;-69
2022/01/29 11:53:20;;;;;;;9.68;2.00;;;11.00;99.90;;;;;;5079226;28;20055;-69
2022/01/29 11:55:46;;;;;;;8.35;1.60;;;11.00;99.90;;;;;;5077691;28;20040;-69
2022/01/29 11:58:20;;;;;;;6.60;1.95;;;11.10;99.90;;;;;;5077306;28;20365;-68
2022/01/29 12:00:49;;;;;;;6.35;1.88;;;11.20;99.90;;;;;;5077457;28;20075;-70
2022/01/29 12:03:34;;;;;;;6.57;2.35;;;11.20;99.90;;;;;;5077241;28;20050;-69
2022/01/29 12:06:12;;;;;;;6.15;1.92;;;11.20;99.90;;;;;;5077430;28;20044;-69
2022/01/29 12:09:08;;;;;;;9.38;2.13;;;11.20;99.90;;;;;;5075487;28;20182;-70
2022/01/29 12:11:37;;;;;;;9.00;1.77;;;11.20;99.90;;;;;;5060607;28;20040;-70
2022/01/29 12:14:12;;;;;;;6.97;1.85;;;11.20;99.90;;;;;;5060663;28;20515;-69
2022/01/29 12:16:55;;;;;;;5.68;2.28;;;11.20;99.90;;;;;;5077171;28;20492;-69
2022/01/29 12:19:40;;;;;;;11.00;2.10;;;11.20;99.90;;;;;;5077304;28;20036;-70
2022/01/29 12:22:23;;;;;;;7.38;1.65;;;11.30;99.90;;;;;;5076636;28;20048;-68
2022/01/29 12:24:51;;;;;;;7.85;2.70;;;11.30;99.90;;;;;;5056928;28;20070;-69
2022/01/29 12:27:17;;;;;;;11.60;2.63;;;11.40;99.90;;;;;;5040076;28;20052;-69
2022/01/29 12:29:44;;;;;;;5.63;2.20;;;11.50;99.90;;;;;;5056737;28;20037;-69
2022/01/29 12:32:11;;;;;;;9.63;2.72;;;11.50;99.90;;;;;;5056926;28;20599;-69
2022/01/29 12:34:40;;;;;;;8.23;1.95;;;11.50;99.90;;;;;;5040111;28;20413;-69
2022/01/29 12:37:16;;;;;;;11.90;3.65;;;11.40;99.90;;;;;;5061894;28;20036;-68
2022/01/29 12:39:46;;;;;;;10.73;3.08;;;11.30;99.90;;;;;;5056515;28;20488;-69
2022/01/29 12:44:52;;;;;;;12.40;2.13;;;11.20;99.90;;;;;;5056768;28;20048;-69
2022/01/29 12:47:25;;;;;;;10.15;2.03;;;11.20;99.90;;;;;;5056701;28;20416;-73
2022/01/29 12:49:51;;;;;;;8.85;2.15;;;11.20;99.90;;;;;;5056579;28;20044;-68
2022/01/29 12:52:19;;;;;;;6.70;1.80;;;11.10;99.90;;;;;;5056771;28;20036;-66
2022/01/29 12:55:02;;;;;;;9.68;2.10;;;11.20;99.90;;;;;;5056307;28;20384;-70
2022/01/29 12:58:01;;;;;;;8.95;1.73;;;11.10;99.90;;;;;;5055896;28;20044;-70
2022/01/29 13:00:28;;;;;;;6.88;2.25;;;11.10;99.90;;;;;;5013442;28;20059;-69
2022/01/29 13:03:09;;;;;;;9.15;2.53;;;11.00;99.90;;;;;;5056334;28;20419;-70